Time;durP1;ratioP1;P1;durP2;ratioP2;P2;SDS_P1;SDS_P2;PMS_P1;PMS_P2;Temp;Humidity;BMP_temperature;BMP_pressure;BME280_temperature;BME280_humidity;BME280_pressure;Samples;Min_cycle;Max_cycle;Signal;HPM_P1;HPM_P2
2023/10/01 00:01:41;;;;;;;14.38;7.60;;;;;;;13.94;100.00;97773.06;5152018;27;20985;-76
2023/10/01 00:04:08;;;;;;;16.30;7.32;;;;;;;13.79;100.00;97781.38;5135184;27;20396;-76
2023/10/01 00:06:37;;;;;;;14.00;7.68;;;;;;;13.68;100.00;97773.22;5151972;27;20393;-75
2023/10/01 00:09:06;;;;;;;13.45;7.15;;;;;;;13.78;100.00;97763.53;5151991;27;20490;-75
2023/10/01 00:11:37;;;;;;;13.43;6.90;;;;;;;13.58;100.00;97765.81;5153024;27;20094;-76
2023/10/01 00:14:06;;;;;;;13.37;6.67;;;;;;;13.37;100.00;97769.13;5136104;27;20490;-75
2023/10/01 00:16:32;;;;;;;11.20;6.75;;;;;;;13.26;100.00;97767.19;5136081;27;20027;-75
2023/10/01 00:18:59;;;;;;;20.70;6.63;;;;;;;13.10;100.00;97755.81;5152918;27;20027;-75
2023/10/01 00:21:27;;;;;;;14.90;6.57;;;;;;;13.13;100.00;97755.59;5153091;27;20045;-75
2023/10/01 00:23:54;;;;;;;13.65;6.78;;;;;;;13.20;100.00;97758.69;5152961;27;20079;-75
2023/10/01 00:26:19;;;;;;;11.48;7.35;;;;;;;13.12;100.00;97753.84;5152925;27;20493;-75
2023/10/01 00:28:45;;;;;;;11.13;6.93;;;;;;;13.10;100.00;97750.44;5137608;27;20030;-75
2023/10/01 00:31:11;;;;;;;9.55;6.30;;;;;;;13.05;100.00;97753.38;5133361;27;20026;-74
2023/10/01 00:33:37;;;;;;;13.30;6.93;;;;;;;12.98;100.00;97753.91;5132734;27;20027;-76
2023/10/01 00:36:03;;;;;;;16.88;6.57;;;;;;;12.94;100.00;97744.34;5152535;27;20451;-75
2023/10/01 00:38:29;;;;;;;14.52;6.93;;;;;;;12.87;100.00;97759.13;5153844;27;20497;-74
2023/10/01 00:40:54;;;;;;;19.27;7.40;;;;;;;12.81;100.00;97751.50;5114892;27;20035;-75
2023/10/01 00:43:31;;;;;;;14.93;7.13;;;;;;;12.83;100.00;97753.13;5131724;27;20036;-75
2023/10/01 00:45:59;;;;;;;16.80;7.38;;;;;;;12.72;100.00;97744.06;5152298;27;20496;-76
2023/10/01 00:48:25;;;;;;;13.50;6.65;;;;;;;12.69;100.00;97746.97;5152451;27;20014;-76
2023/10/01 00:50:52;;;;;;;14.05;6.60;;;;;;;12.77;100.00;97745.47;5134967;27;20119;-75
2023/10/01 00:53:19;;;;;;;14.13;7.18;;;;;;;12.73;100.00;97753.84;5135097;27;20015;-75
2023/10/01 00:55:44;;;;;;;17.10;7.35;;;;;;;12.76;100.00;97756.34;5152291;27;20026;-75
2023/10/01 00:58:10;;;;;;;13.63;7.68;;;;;;;12.78;100.00;97751.72;5135054;27;20015;-75
2023/10/01 01:00:36;;;;;;;13.70;6.97;;;;;;;12.78;100.00;97749.88;5152639;27;20107;-76
2023/10/01 01:05:35;;;;;;;14.13;7.05;;;;;;;12.88;100.00;97755.50;5152185;27;20029;-76
2023/10/01 01:08:46;;;;;;;13.90;7.10;;;;;;;12.75;100.00;97759.97;5131691;27;20372;-75
2023/10/01 01:11:01;;;;;;;12.35;7.10;;;;;;;12.70;100.00;97752.25;5143248;27;20118;-75
2023/10/01 01:13:34;;;;;;;13.32;7.07;;;;;;;12.59;100.00;97743.16;5151835;27;20101;-75
2023/10/01 01:16:00;;;;;;;17.42;7.57;;;;;;;12.60;100.00;97744.91;5131597;27;20108;-75
2023/10/01 01:18:33;;;;;;;13.70;7.47;;;;;;;12.73;100.00;97743.97;5137866;27;20023;-75
2023/10/01 01:21:05;;;;;;;12.02;6.93;;;;;;;12.70;100.00;97744.19;5151617;27;20043;-76
2023/10/01 01:23:31;;;;;;;13.63;7.07;;;;;;;12.66;100.00;97752.53;5135192;27;20413;-76
2023/10/01 01:25:56;;;;;;;11.43;6.93;;;;;;;12.67;100.00;97748.91;5151641;27;20026;-76
2023/10/01 01:28:30;;;;;;;14.70;7.47;;;;;;;12.67;100.00;97749.75;5151544;27;20045;-76
2023/10/01 01:31:00;;;;;;;18.13;7.65;;;;;;;12.59;100.00;97749.41;5151579;27;20105;-75
2023/10/01 01:33:32;;;;;;;17.52;8.63;;;;;;;12.59;100.00;97748.53;5151648;27;20027;-75
2023/10/01 01:36:09;;;;;;;17.58;7.68;;;;;;;12.61;100.00;97743.94;5134966;27;20056;-76
2023/10/01 01:38:37;;;;;;;19.20;8.25;;;;;;;12.64;100.00;97747.28;5131200;27;20097;-76
2023/10/01 01:41:03;;;;;;;12.57;7.55;;;;;;;12.68;100.00;97761.34;5133301;27;20042;-75
2023/10/01 01:43:32;;;;;;;13.55;7.88;;;;;;;12.62;100.00;97754.56;5133073;27;20023;-75
2023/10/01 01:46:09;;;;;;;14.15;7.60;;;;;;;12.55;100.00;97750.56;5149487;27;20036;-75
2023/10/01 01:48:40;;;;;;;17.73;7.50;;;;;;;12.44;100.00;97762.03;5134904;27;20073;-75
2023/10/01 01:51:06;;;;;;;12.10;7.00;;;;;;;12.44;100.00;97758.47;5151121;27;20050;-74
2023/10/01 01:53:41;;;;;;;13.48;7.72;;;;;;;12.40;100.00;97755.13;5151285;27;20022;-75
2023/10/01 01:56:16;;;;;;;19.52;8.00;;;;;;;12.34;100.00;97760.91;5151417;27;20410;-76
2023/10/01 01:58:45;;;;;;;14.40;7.60;;;;;;;12.25;100.00;97753.44;5139598;27;20023;-75
2023/10/01 02:03:44;;;;;;;16.77;7.82;;;;;;;11.95;100.00;97755.44;5150402;27;20397;-75
2023/10/01 02:06:26;;;;;;;22.45;9.25;;;;;;;11.86;100.00;97756.03;5152336;27;20027;-75
2023/10/01 02:11:21;;;;;;;16.50;8.30;;;;;;;11.67;100.00;97752.75;5146941;27;20035;-75
2023/10/01 02:13:51;;;;;;;14.75;8.15;;;;;;;11.72;100.00;97759.56;5133901;27;20029;-75
2023/10/01 02:19:11;;;;;;;16.85;7.38;;;;;;;11.69;100.00;97762.41;5147426;27;20034;-76
2023/10/01 02:21:47;;;;;;;16.00;7.80;;;;;;;11.63;100.00;97761.97;5121018;27;20032;-75
2023/10/01 02:24:19;;;;;;;14.18;7.05;;;;;;;11.68;100.00;97750.00;5149966;27;20027;-75
2023/10/01 02:26:46;;;;;;;16.35;7.03;;;;;;;11.65;100.00;97750.19;5150859;27;20433;-76
2023/10/01 02:29:13;;;;;;;11.98;7.35;;;;;;;11.73;100.00;97763.13;5131369;27;20371;-75
2023/10/01 02:31:48;;;;;;;20.00;8.00;;;;;;;11.68;100.00;97755.34;5149244;27;20450;-75
2023/10/01 02:34:14;;;;;;;14.88;7.55;;;;;;;11.68;100.00;97767.88;5150797;27;20064;-75
2023/10/01 02:36:42;;;;;;;14.02;8.05;;;;;;;11.76;100.00;97773.63;5150920;27;20551;-76
2023/10/01 02:39:17;;;;;;;15.88;7.80;;;;;;;11.70;100.00;97764.19;5150590;27;20098;-76
2023/10/01 02:42:03;;;;;;;20.13;8.38;;;;;;;11.75;100.00;97766.59;5152054;27;20045;-76
2023/10/01 02:44:28;;;;;;;20.60;8.40;;;;;;;11.74;100.00;97759.50;5150976;27;20045;-75
2023/10/01 02:46:58;;;;;;;14.48;8.32;;;;;;;11.81;100.00;97774.22;5150909;27;20071;-75
2023/10/01 02:49:24;;;;;;;17.20;7.68;;;;;;;11.82;100.00;97763.41;5133733;27;20027;-76
2023/10/01 02:51:49;;;;;;;20.02;8.00;;;;;;;11.79;100.00;97768.09;5136458;27;20057;-76
2023/10/01 02:54:18;;;;;;;19.45;8.27;;;;;;;11.83;100.00;97764.25;5131829;27;20171;-75
2023/10/01 02:57:11;;;;;;;20.58;8.32;;;;;;;11.84;100.00;97776.72;5138115;27;20167;-76
2023/10/01 03:00:20;;;;;;;15.25;8.00;;;;;;;11.73;100.00;97763.97;5156268;27;20030;-75
2023/10/01 03:02:25;;;;;;;15.18;7.95;;;;;;;11.75;100.00;97755.88;5154721;27;20037;-76
2023/10/01 03:04:51;;;;;;;18.42;8.45;;;;;;;11.77;100.00;97759.28;5119008;27;20031;-75
2023/10/01 03:07:17;;;;;;;18.60;8.38;;;;;;;11.73;100.00;97761.31;5129964;27;20122;-76
2023/10/01 03:09:43;;;;;;;18.23;8.00;;;;;;;11.82;100.00;97765.22;5155747;27;20050;-76
2023/10/01 03:12:24;;;;;;;18.30;7.97;;;;;;;11.84;100.00;97766.84;5124897;27;20114;-76
2023/10/01 03:17:38;;;;;;;21.10;8.43;;;;;;;11.85;100.00;97762.34;5149304;27;20030;-76
2023/10/01 03:22:53;;;;;;;18.33;8.68;;;;;;;11.83;100.00;97769.63;5136900;27;20110;-76
2023/10/01 03:25:20;;;;;;;19.38;8.10;;;;;;;11.78;100.00;97764.53;5135212;27;20494;-75
2023/10/01 03:27:45;;;;;;;27.80;8.63;;;;;;;11.70;100.00;97761.50;5131515;27;20102;-76
2023/10/01 03:30:23;;;;;;;19.70;8.20;;;;;;;11.63;100.00;97761.97;5136336;27;20057;-74
2023/10/01 03:32:49;;;;;;;16.35;7.47;;;;;;;11.65;100.00;97766.25;5154196;27;20034;-76
2023/10/01 03:35:14;;;;;;;17.27;7.97;;;;;;;11.58;100.00;97764.03;5153798;27;20018;-75
2023/10/01 03:37:40;;;;;;;13.05;7.38;;;;;;;11.54;100.00;97754.47;5153857;27;20478;-76
2023/10/01 03:40:18;;;;;;;18.30;8.35;;;;;;;11.52;100.00;97751.91;5153722;27;20072;-74
2023/10/01 03:42:50;;;;;;;18.20;8.13;;;;;;;11.48;100.00;97755.72;5138098;27;20468;-75
2023/10/01 03:47:59;;;;;;;16.73;7.75;;;;;;;11.35;100.00;97763.66;5151959;27;20323;-75
2023/10/01 03:50:25;;;;;;;14.25;7.97;;;;;;;11.25;100.00;97762.50;5153556;27;20029;-76
2023/10/01 03:52:54;;;;;;;15.98;7.75;;;;;;;11.18;100.00;97758.47;5153567;27;20023;-76
2023/10/01 03:55:26;;;;;;;11.27;7.40;;;;;;;11.08;100.00;97762.66;5152481;27;20069;-76
2023/10/01 03:57:55;;;;;;;13.30;8.15;;;;;;;11.06;100.00;97766.38;5141242;27;20023;-76
2023/10/01 04:03:21;;;;;;;15.00;7.78;;;;;;;11.03;100.00;97767.44;5108132;27;20038;-76
2023/10/01 04:05:56;;;;;;;15.45;8.30;;;;;;;11.08;100.00;97784.06;5140009;27;20031;-75
2023/10/01 04:08:23;;;;;;;19.63;8.02;;;;;;;11.09;100.00;97767.06;5132138;27;20079;-75
2023/10/01 04:10:58;;;;;;;17.30;7.78;;;;;;;11.11;100.00;97765.16;5133730;27;20023;-76
2023/10/01 04:13:24;;;;;;;18.83;8.35;;;;;;;11.25;100.00;97770.53;5150302;27;20018;-75
2023/10/01 04:15:55;;;;;;;13.80;7.72;;;;;;;11.27;100.00;97771.31;5153153;27;20079;-75
2023/10/01 04:18:23;;;;;;;16.38;8.25;;;;;;;11.23;100.00;97772.44;5152716;27;20033;-75
2023/10/01 04:23:29;;;;;;;13.82;7.88;;;;;;;11.16;100.00;97783.63;5131911;27;20023;-75
2023/10/01 04:25:56;;;;;;;13.90;8.65;;;;;;;11.25;100.00;97783.06;5148858;27;20071;-76
2023/10/01 04:28:23;;;;;;;13.75;7.78;;;;;;;11.26;100.00;97790.13;5154173;27;20087;-75
2023/10/01 04:30:51;;;;;;;22.13;8.18;;;;;;;11.26;100.00;97790.13;5145580;27;20034;-74
2023/10/01 04:33:18;;;;;;;17.63;8.55;;;;;;;11.25;100.00;97789.28;5127317;27;20030;-75
2023/10/01 04:35:58;;;;;;;15.98;7.95;;;;;;;11.23;100.00;97798.34;5152471;27;20045;-75
2023/10/01 04:38:29;;;;;;;19.80;9.27;;;;;;;11.29;100.00;97806.88;5152237;27;20126;-74
2023/10/01 04:41:03;;;;;;;16.58;8.70;;;;;;;11.31;100.00;97810.34;5139697;27;20034;-75
2023/10/01 04:43:34;;;;;;;16.30;8.43;;;;;;;11.34;100.00;97804.78;5149585;27;20025;-75
2023/10/01 04:46:01;;;;;;;22.70;8.60;;;;;;;11.36;100.00;97802.88;5136381;27;20029;-75
2023/10/01 04:48:26;;;;;;;20.30;7.57;;;;;;;11.35;100.00;97801.13;5153437;27;20406;-75
2023/10/01 04:50:53;;;;;;;26.42;8.23;;;;;;;11.41;100.00;97810.66;5139913;27;20034;-76
2023/10/01 04:53:23;;;;;;;28.20;10.05;;;;;;;11.39;100.00;97817.88;5131629;27;20062;-76
2023/10/01 04:56:04;;;;;;;32.90;11.52;;;;;;;11.43;100.00;97820.31;5151639;27;20044;-76
2023/10/01 04:58:32;;;;;;;17.20;8.93;;;;;;;11.47;100.00;97826.34;5152195;27;20070;-76
2023/10/01 05:00:58;;;;;;;17.88;9.73;;;;;;;11.50;100.00;97819.94;5122472;27;20030;-75
2023/10/01 05:03:38;;;;;;;19.58;8.63;;;;;;;11.57;100.00;97821.25;5131457;27;20031;-75
2023/10/01 05:06:13;;;;;;;17.98;7.85;;;;;;;11.95;100.00;97834.03;5140336;27;20015;-76
2023/10/01 05:08:43;;;;;;;22.17;8.35;;;;;;;12.61;100.00;97829.81;5141774;27;20027;-76
2023/10/01 05:11:13;;;;;;;14.40;7.20;;;;;;;13.44;100.00;97816.97;5152066;27;20502;-75
2023/10/01 05:13:43;;;;;;;21.75;8.40;;;;;;;14.30;100.00;97818.00;5147808;27;20030;-75
2023/10/01 05:16:12;;;;;;;10.98;7.35;;;;;;;14.76;100.00;97811.97;5148090;27;20102;-76
2023/10/01 05:18:48;;;;;;;17.83;7.28;;;;;;;15.18;100.00;97816.81;5124029;27;20053;-76
2023/10/01 05:21:18;;;;;;;27.63;7.60;;;;;;;15.60;100.00;97805.44;5131454;27;20027;-76
2023/10/01 05:23:45;;;;;;;14.55;7.93;;;;;;;16.03;100.00;97802.03;5132085;27;20019;-76
2023/10/01 05:26:11;;;;;;;24.75;8.27;;;;;;;15.99;100.00;97811.38;5130490;27;20026;-76
2023/10/01 05:28:41;;;;;;;19.83;7.35;;;;;;;16.18;100.00;97817.03;5151262;27;20091;-75
2023/10/01 05:31:15;;;;;;;17.35;9.05;;;;;;;16.51;100.00;97814.31;5134543;27;20090;-76
2023/10/01 05:33:51;;;;;;;24.70;9.57;;;;;;;16.93;100.00;97811.75;5151443;27;20018;-75
2023/10/01 05:36:18;;;;;;;25.58;8.73;;;;;;;17.05;100.00;97806.19;5152612;27;20147;-75
2023/10/01 05:38:44;;;;;;;24.88;9.77;;;;;;;17.54;100.00;97811.00;5133798;27;20562;-75
2023/10/01 05:41:13;;;;;;;23.65;9.43;;;;;;;17.60;100.00;97810.50;5143835;27;20062;-76
2023/10/01 05:43:50;;;;;;;18.00;8.90;;;;;;;17.55;100.00;97814.59;5130334;27;20062;-76
2023/10/01 05:46:22;;;;;;;20.67;9.18;;;;;;;17.31;100.00;97825.63;5150237;27;20028;-76
2023/10/01 05:48:49;;;;;;;;;;;;;;;18.31;100.00;97815.03;5152695;27;20480;-76
2023/10/01 05:51:18;;;;;;;14.75;8.05;;;;;;;18.67;100.00;97813.59;5145951;27;19922;-75
2023/10/01 05:53:50;;;;;;;17.20;7.97;;;;;;;19.14;100.00;97811.13;5130928;27;20030;-75
2023/10/01 05:56:17;;;;;;;20.38;9.35;;;;;;;19.45;100.00;97808.19;5151146;27;20022;-76
2023/10/01 05:58:43;;;;;;;16.60;8.02;;;;;;;19.87;100.00;97803.25;5134697;27;20027;-74
2023/10/01 06:01:16;;;;;;;21.17;8.70;;;;;;;20.11;98.08;97805.50;5148486;27;20034;-77
2023/10/01 06:03:43;;;;;;;18.33;8.73;;;;;;;20.51;95.05;97797.06;5150950;27;20046;-75
2023/10/01 06:06:25;;;;;;;13.93;7.75;;;;;;;20.60;94.77;97798.88;5150814;27;20031;-76
2023/10/01 06:08:58;;;;;;;12.20;7.83;;;;;;;20.94;93.57;97796.38;5143714;27;20088;-76
2023/10/01 06:11:39;;;;;;;27.58;8.45;;;;;;;21.06;90.74;97801.47;5150303;27;20279;-75
2023/10/01 06:14:06;;;;;;;19.10;7.10;;;;;;;21.21;90.32;97798.22;5150703;27;20470;-76
2023/10/01 06:16:37;;;;;;;16.25;8.27;;;;;;;21.48;87.29;97799.00;5136027;27;20050;-75
2023/10/01 06:19:04;;;;;;;19.38;9.07;;;;;;;21.89;84.61;97804.81;5129886;27;20045;-75
2023/10/01 06:21:32;;;;;;;20.33;8.52;;;;;;;22.44;80.50;97797.13;5133380;27;20018;-75
2023/10/01 06:24:01;;;;;;;18.10;8.13;;;;;;;22.48;77.96;97804.00;5151855;27;20517;-75
2023/10/01 06:26:37;;;;;;;21.75;9.38;;;;;;;22.86;74.88;97806.22;5147928;27;20062;-76
2023/10/01 06:29:03;;;;;;;19.30;10.15;;;;;;;22.86;75.68;97814.41;5129674;27;20607;-75
2023/10/01 06:31:47;;;;;;;21.65;10.63;;;;;;;22.75;74.36;97813.84;5131463;27;20023;-75
2023/10/01 06:34:19;;;;;;;23.90;11.30;;;;;;;23.43;71.99;97815.44;5140053;27;20015;-75
2023/10/01 06:36:45;;;;;;;25.52;10.57;;;;;;;23.36;72.38;97810.78;5147997;27;20034;-74
2023/10/01 06:39:19;;;;;;;16.80;8.77;;;;;;;23.17;71.64;97810.06;5151668;27;20026;-75
2023/10/01 06:41:48;;;;;;;31.95;14.10;;;;;;;23.22;72.95;97810.41;5152283;27;20050;-75
2023/10/01 06:44:14;;;;;;;21.80;10.68;;;;;;;24.42;65.80;97817.97;5151597;27;20030;-75
2023/10/01 06:46:40;;;;;;;15.88;8.32;;;;;;;25.02;59.84;97810.06;5152096;27;20075;-75
2023/10/01 06:49:08;;;;;;;18.50;10.35;;;;;;;25.13;59.77;97810.50;5152012;27;20492;-76
2023/10/01 06:51:43;;;;;;;23.95;9.65;;;;;;;24.76;60.53;97816.66;5151068;27;20125;-75
2023/10/01 06:54:10;;;;;;;17.73;11.13;;;;;;;24.17;65.07;97825.38;5133747;27;20498;-75
2023/10/01 06:56:44;;;;;;;18.33;8.90;;;;;;;24.37;65.72;97823.97;5121076;27;20075;-75
2023/10/01 06:59:17;;;;;;;15.15;7.35;;;;;;;24.15;62.93;97811.88;5150892;27;20067;-74
2023/10/01 07:01:47;;;;;;;19.67;7.25;;;;;;;24.86;60.57;97818.34;5151669;27;20098;-75
2023/10/01 07:04:17;;;;;;;15.45;6.53;;;;;;;24.67;61.89;97822.34;5150369;27;20517;-77
2023/10/01 07:06:44;;;;;;;15.10;6.50;;;;;;;24.40;62.21;97825.50;5114096;27;20034;-76
2023/10/01 07:09:32;;;;;;;11.35;6.10;;;;;;;24.73;61.57;97822.47;5151393;27;20045;-74
2023/10/01 07:11:59;;;;;;;17.70;7.75;;;;;;;24.65;62.29;97829.88;5137785;27;20347;-75
2023/10/01 07:14:59;;;;;;;15.27;6.72;;;;;;;25.12;61.11;97819.78;5132044;27;20030;-75
2023/10/01 07:17:24;;;;;;;14.60;7.78;;;;;;;25.42;59.04;97825.41;5128243;27;20043;-76
2023/10/01 07:20:00;;;;;;;33.75;19.63;;;;;;;26.66;54.35;97816.66;5145916;27;20034;-77
2023/10/01 07:22:38;;;;;;;12.05;5.97;;;;;;;27.36;51.35;97810.59;5152061;27;20026;-76
2023/10/01 07:25:04;;;;;;;9.15;6.60;;;;;;;27.79;49.31;97806.03;5130611;27;20111;-74
2023/10/01 07:27:30;;;;;;;13.77;5.18;;;;;;;27.82;49.12;97802.88;5131390;27;20095;-75
2023/10/01 07:29:56;;;;;;;7.57;5.88;;;;;;;27.42;50.29;97816.22;5146191;27;20435;-74
2023/10/01 07:32:24;;;;;;;11.95;5.50;;;;;;;28.03;49.37;97802.84;5134051;27;20405;-74
2023/10/01 07:34:59;;;;;;;17.15;5.47;;;;;;;28.50;47.83;97797.53;5130410;27;20023;-74
2023/10/01 07:37:31;;;;;;;10.30;5.63;;;;;;;28.05;48.63;97795.31;5148470;27;20113;-79
2023/10/01 07:40:09;;;;;;;10.13;6.07;;;;;;;28.50;48.50;97804.94;5135598;27;20031;-74
2023/10/01 07:42:46;;;;;;;12.73;5.70;;;;;;;29.42;46.39;97803.56;5132867;27;20110;-74
2023/10/01 07:45:16;;;;;;;16.20;11.23;;;;;;;29.54;46.00;97803.81;5134217;27;20027;-75
2023/10/01 07:47:43;;;;;;;11.18;7.40;;;;;;;30.67;44.02;97805.63;5140943;27;20091;-75
2023/10/01 07:50:12;;;;;;;11.40;5.95;;;;;;;30.09;44.37;97799.88;5148331;27;20019;-74
2023/10/01 07:52:41;;;;;;;22.38;7.13;;;;;;;30.45;43.54;97808.63;5154484;27;20022;-75
2023/10/01 07:57:52;;;;;;;15.65;7.10;;;;;;;30.57;41.99;97812.44;5149513;27;20033;-75
2023/10/01 08:00:28;;;;;;;16.50;7.68;;;;;;;30.36;43.83;97809.88;5132362;27;20031;-75
2023/10/01 08:05:39;;;;;;;19.38;7.97;;;;;;;28.31;46.43;97823.03;5133603;27;20038;-74
2023/10/01 08:08:08;;;;;;;10.93;6.18;;;;;;;28.91;46.17;97821.56;5133228;27;20031;-75
2023/10/01 08:10:37;;;;;;;10.95;7.13;;;;;;;29.17;45.12;97815.31;5149072;27;20030;-77
2023/10/01 08:13:24;;;;;;;14.30;7.07;;;;;;;28.39;47.40;97825.63;5152551;27;20083;-74
2023/10/01 08:15:59;;;;;;;14.57;6.38;;;;;;;27.89;48.48;97828.56;5153925;27;20054;-74
2023/10/01 08:18:39;;;;;;;12.15;6.32;;;;;;;27.49;49.89;97831.94;5152719;27;20027;-74
2023/10/01 08:21:15;;;;;;;14.13;6.45;;;;;;;27.07;50.90;97829.91;5153629;27;20125;-74
2023/10/01 08:23:48;;;;;;;14.07;8.02;;;;;;;27.63;49.87;97822.75;5152946;27;20490;-76
2023/10/01 08:28:57;;;;;;;14.90;8.00;;;;;;;27.54;51.16;97833.03;5153032;27;20030;-74
2023/10/01 08:34:23;;;;;;;14.95;7.75;;;;;;;26.40;58.88;97835.44;5150987;27;20501;-74
2023/10/01 08:36:49;;;;;;;12.18;7.40;;;;;;;25.48;63.75;97850.19;5137237;27;20031;-75
2023/10/01 08:39:53;;;;;;;14.27;8.02;;;;;;;25.30;67.24;97842.28;5153343;27;20019;-74
2023/10/01 08:42:10;;;;;;;21.65;7.40;;;;;;;26.98;59.40;97840.13;5149071;27;20049;-75
2023/10/01 08:44:44;;;;;;;11.00;7.25;;;;;;;28.63;52.38;97831.72;5138825;27;20098;-75
2023/10/01 08:47:27;;;;;;;13.00;7.93;;;;;;;30.36;46.43;97820.94;5132552;27;20023;-75
2023/10/01 08:49:55;;;;;;;18.95;8.02;;;;;;;31.90;41.76;97814.47;5127635;27;20027;-75
2023/10/01 08:52:25;;;;;;;18.50;7.75;;;;;;;31.52;41.52;97808.13;5150717;27;20033;-75
2023/10/01 08:54:53;;;;;;;16.27;8.65;;;;;;;31.95;41.06;97800.84;5152125;27;20026;-75
2023/10/01 08:57:45;;;;;;;14.20;6.55;;;;;;;32.69;39.65;97809.22;5151966;27;20473;-75
2023/10/01 09:00:19;;;;;;;10.47;6.67;;;;;;;34.56;36.89;97800.69;5128495;27;20030;-74
2023/10/01 09:02:55;;;;;;;14.70;6.90;;;;;;;34.91;35.78;97797.94;5134328;27;20033;-75
2023/10/01 09:05:25;;;;;;;11.00;6.95;;;;;;;35.14;34.99;97792.34;5151066;27;20026;-73
2023/10/01 09:10:53;;;;;;;14.35;7.38;;;;;;;35.81;33.63;97784.28;5129425;27;20046;-74
2023/10/01 09:13:22;;;;;;;15.90;7.70;;;;;;;34.84;35.13;97791.66;5125003;27;20027;-75
2023/10/01 09:15:55;;;;;;;10.45;6.60;;;;;;;34.37;35.94;97795.47;5150953;27;20038;-74
2023/10/01 09:18:26;;;;;;;18.75;7.78;;;;;;;35.20;34.61;97796.94;5134459;27;20037;-74
2023/10/01 09:26:53;;;;;;;9.70;6.80;;;;;;;33.08;37.11;97799.63;5112058;27;20049;-75
2023/10/01 09:29:23;;;;;;;11.82;7.57;;;;;;;33.93;36.26;97805.16;5151124;27;20164;-74
2023/10/01 09:31:59;;;;;;;12.93;7.40;;;;;;;33.59;36.99;97798.34;5150849;27;20034;-74
2023/10/01 09:34:31;;;;;;;13.82;8.23;;;;;;;34.40;36.29;97806.94;5151121;27;20424;-74
2023/10/01 09:37:35;;;;;;;11.98;7.70;;;;;;;35.10;35.14;97793.94;5152433;27;20023;-74
2023/10/01 09:40:52;;;;;;;12.52;7.25;;;;;;;34.94;34.96;97802.16;5152177;27;20496;-74
2023/10/01 09:43:03;;;;;;;11.30;7.30;;;;;;;34.66;34.85;97802.91;5140233;27;20115;-74
2023/10/01 09:45:39;;;;;;;15.70;7.63;;;;;;;33.95;35.89;97801.03;5133454;27;20026;-75
2023/10/01 09:48:09;;;;;;;12.60;8.32;;;;;;;34.14;35.35;97791.59;5150844;27;20023;-75
2023/10/01 09:50:44;;;;;;;12.82;7.05;;;;;;;33.91;36.10;97801.75;5133292;27;20082;-75
2023/10/01 09:53:14;;;;;;;15.63;7.78;;;;;;;33.78;36.52;97792.53;5148904;27;20500;-74
2023/10/01 09:55:47;;;;;;;10.95;6.88;;;;;;;34.08;36.24;97798.06;5150205;27;20019;-74
2023/10/01 09:58:27;;;;;;;17.33;7.47;;;;;;;34.84;35.36;97792.50;5151628;27;20023;-75
2023/10/01 10:00:55;;;;;;;13.18;7.10;;;;;;;34.69;34.97;97794.09;5150998;27;20076;-75
2023/10/01 10:03:21;;;;;;;15.55;7.05;;;;;;;34.19;35.09;97788.09;5149997;27;20025;-73
2023/10/01 10:05:48;;;;;;;13.07;7.35;;;;;;;34.75;34.94;97793.97;5133449;27;20193;-74
2023/10/01 10:08:15;;;;;;;10.45;6.70;;;;;;;35.14;34.19;97783.16;5151902;27;20015;-75
2023/10/01 10:10:52;;;;;;;12.45;6.80;;;;;;;35.08;33.84;97775.75;5150454;27;20705;-74
2023/10/01 10:13:45;;;;;;;11.35;7.30;;;;;;;34.21;35.49;97785.91;5151946;27;20025;-74
2023/10/01 10:16:33;;;;;;;13.68;6.70;;;;;;;34.64;34.99;97771.72;5133924;27;20024;-74
2023/10/01 10:19:20;;;;;;;18.88;6.70;;;;;;;34.98;34.36;97754.13;5125939;27;20038;-75
2023/10/01 10:24:32;;;;;;;10.77;7.20;;;;;;;34.77;34.55;97752.00;5151753;27;20135;-74
2023/10/01 10:27:06;;;;;;;11.95;7.57;;;;;;;35.12;34.66;97754.75;5151883;27;20027;-74
2023/10/01 10:29:49;;;;;;;16.08;6.93;;;;;;;35.70;33.52;97754.56;5151650;27;20406;-74
2023/10/01 10:32:24;;;;;;;11.93;6.97;;;;;;;36.16;32.87;97756.25;5151684;27;20030;-74
2023/10/01 10:35:04;;;;;;;10.15;6.70;;;;;;;35.75;33.12;97744.34;5150334;27;20551;-74
2023/10/01 10:37:43;;;;;;;16.95;7.13;;;;;;;35.84;33.33;97747.56;5151497;27;20022;-75
2023/10/01 10:40:13;;;;;;;13.43;7.30;;;;;;;32.72;35.69;97736.69;5151678;27;20011;-75
2023/10/01 10:43:02;;;;;;;9.05;6.68;;;;;;;32.81;36.50;97741.91;5150120;27;20026;-74
2023/10/01 10:45:42;;;;;;;11.93;6.40;;;;;;;33.98;35.36;97742.25;5126310;27;20114;-74
2023/10/01 10:48:08;;;;;;;15.25;8.27;;;;;;;34.64;35.37;97733.63;5126280;27;20112;-76
2023/10/01 10:50:48;;;;;;;13.45;6.45;;;;;;;36.07;33.21;97724.34;5138925;27;20500;-74
2023/10/01 10:53:21;;;;;;;12.43;6.45;;;;;;;33.96;35.15;97729.69;5151437;27;20034;-74
2023/10/01 10:56:09;;;;;;;14.25;6.97;;;;;;;34.73;34.36;97720.22;5139270;27;20031;-75
2023/10/01 10:58:46;;;;;;;10.90;7.57;;;;;;;35.05;34.16;97720.63;5149813;27;20030;-74
2023/10/01 11:01:21;;;;;;;13.07;8.10;;;;;;;34.52;34.24;97709.69;5144714;27;20023;-74
2023/10/01 11:03:59;;;;;;;12.00;6.65;;;;;;;31.89;37.63;97727.00;5134330;27;20026;-74
2023/10/01 11:06:39;;;;;;;12.35;6.70;;;;;;;31.14;39.15;97722.34;5133338;27;20019;-74
2023/10/01 11:09:24;;;;;;;12.02;6.60;;;;;;;31.51;39.04;97721.53;5150361;27;20025;-74
2023/10/01 11:12:01;;;;;;;16.77;7.03;;;;;;;32.78;37.25;97712.75;5151300;27;20041;-74
2023/10/01 11:14:26;;;;;;;17.80;7.18;;;;;;;32.77;37.12;97701.88;5132780;27;20030;-75
2023/10/01 11:16:52;;;;;;;11.57;7.10;;;;;;;33.79;35.50;97702.63;5152862;27;20113;-75
2023/10/01 11:19:25;;;;;;;14.23;7.53;;;;;;;34.49;34.62;97691.56;5153445;27;20031;-75
2023/10/01 11:21:58;;;;;;;9.95;6.53;;;;;;;32.71;36.39;97696.19;5148777;27;20023;-74
2023/10/01 11:24:39;;;;;;;15.43;6.75;;;;;;;31.74;38.29;97709.03;5152505;27;20425;-74
2023/10/01 11:27:24;;;;;;;10.82;7.03;;;;;;;30.63;40.00;97711.28;5153692;27;20018;-75
2023/10/01 11:30:24;;;;;;;11.75;6.97;;;;;;;29.28;42.26;97710.88;5153604;27;20033;-75
2023/10/01 11:33:13;;;;;;;10.80;7.00;;;;;;;28.88;42.65;97709.88;5152883;27;20014;-75
2023/10/01 11:36:06;;;;;;;13.98;6.43;;;;;;;27.98;45.09;97718.19;5138271;27;20031;-75
2023/10/01 11:38:32;;;;;;;12.88;6.47;;;;;;;27.37;46.51;97719.75;5153503;27;20101;-75
2023/10/01 11:41:06;;;;;;;11.88;6.35;;;;;;;27.17;48.14;97724.16;5153191;27;20030;-74
2023/10/01 11:43:58;;;;;;;11.38;6.45;;;;;;;26.79;49.28;97719.91;5135824;27;20086;-74
2023/10/01 11:46:32;;;;;;;14.55;6.28;;;;;;;26.57;48.97;97727.22;5154694;27;20026;-74
2023/10/01 11:49:07;;;;;;;11.73;6.40;;;;;;;26.57;49.52;97726.34;5154586;27;20339;-73
2023/10/01 11:51:45;;;;;;;17.58;6.38;;;;;;;27.98;45.84;97718.19;5154361;27;20032;-75
2023/10/01 11:54:43;;;;;;;12.43;6.38;;;;;;;29.39;42.21;97707.50;5154635;27;20026;-74
2023/10/01 11:57:22;;;;;;;13.55;6.43;;;;;;;30.15;40.25;97688.63;5153329;27;20022;-75
2023/10/01 11:59:58;;;;;;;13.50;6.70;;;;;;;29.74;40.98;97688.88;5152926;27;20030;-75
2023/10/01 12:02:33;;;;;;;13.30;5.97;;;;;;;30.66;38.76;97679.59;5154435;27;20375;-75
2023/10/01 12:05:03;;;;;;;9.77;5.82;;;;;;;31.94;35.46;97671.81;5117191;27;20445;-75
2023/10/01 12:07:39;;;;;;;8.60;5.82;;;;;;;33.12;33.93;97667.75;5150034;27;20117;-74
2023/10/01 12:10:07;;;;;;;9.57;5.45;;;;;;;32.90;33.32;97666.53;5152677;27;20023;-74
2023/10/01 12:12:42;;;;;;;11.68;5.25;;;;;;;31.33;35.77;97670.78;5152705;27;20509;-74
2023/10/01 12:17:55;;;;;;;9.00;6.25;;;;;;;30.18;38.13;97674.41;5133185;27;20054;-74
2023/10/01 12:20:24;;;;;;;8.23;5.85;;;;;;;31.73;36.14;97671.34;5133087;27;20542;-75
2023/10/01 12:23:33;;;;;;;16.25;7.28;;;;;;;32.04;35.74;97674.09;5151738;27;20035;-74
2023/10/01 12:25:53;;;;;;;12.63;7.13;;;;;;;32.48;36.08;97675.78;5144434;27;20467;-75
2023/10/01 12:28:24;;;;;;;14.70;6.30;;;;;;;33.15;34.63;97675.59;5139541;27;20426;-74
2023/10/01 12:31:08;;;;;;;14.25;7.43;;;;;;;32.25;35.85;97665.34;5126281;27;20027;-74
2023/10/01 12:33:41;;;;;;;13.57;6.05;;;;;;;30.48;38.03;97670.13;5152318;27;20034;-74
2023/10/01 12:39:38;;;;;;;20.15;6.45;;;;;;;29.91;39.72;97673.59;5149123;27;20156;-74